createdAt,value
2019-02-14T00:00:13.513Z,16.20
2019-02-14T00:02:41.928Z,15.17
2019-02-14T00:05:16.195Z,24.80
2019-02-14T00:07:40.589Z,16.97
2019-02-14T00:10:09.906Z,15.03
2019-02-14T00:12:38.489Z,16.00
2019-02-14T00:15:12.050Z,17.77
2019-02-14T00:17:40.468Z,15.70
2019-02-14T00:20:09.936Z,17.00
2019-02-14T00:22:38.353Z,14.57
2019-02-14T00:25:07.159Z,13.30
2019-02-14T00:27:35.650Z,18.23
2019-02-14T00:30:05.177Z,17.87
2019-02-14T00:32:33.608Z,14.83
2019-02-14T00:35:02.034Z,16.90
2019-02-14T00:37:30.468Z,14.37
2019-02-14T00:39:58.893Z,14.87
2019-02-14T00:42:27.324Z,14.80
2019-02-14T00:44:55.739Z,15.90
2019-02-14T00:47:24.164Z,15.73
2019-02-14T00:49:52.592Z,15.80
2019-02-14T00:52:21.017Z,11.40
2019-02-14T00:54:49.444Z,13.53
2019-02-14T00:57:17.880Z,15.23
2019-02-14T00:59:46.302Z,15.27
2019-02-14T01:02:14.738Z,14.87
2019-02-14T01:04:43.164Z,16.02
2019-02-14T01:07:11.593Z,16.85
2019-02-14T01:09:40.022Z,17.30
2019-02-14T01:12:09.129Z,17.27
2019-02-14T01:14:37.547Z,14.53
2019-02-14T01:17:06.005Z,17.87
2019-02-14T01:19:34.672Z,13.80
2019-02-14T01:22:03.119Z,12.58
2019-02-14T01:24:31.540Z,19.83
2019-02-14T01:26:59.969Z,14.83
2019-02-14T01:29:28.388Z,13.90
2019-02-14T01:31:58.132Z,13.10
2019-02-14T01:34:45.884Z,15.07
2019-02-14T01:37:14.309Z,14.77
2019-02-14T01:39:42.809Z,14.80
2019-02-14T01:42:11.227Z,13.97
2019-02-14T01:44:58.990Z,16.47
2019-02-14T01:47:27.416Z,14.93
2019-02-14T01:49:55.828Z,12.87
2019-02-14T01:52:24.259Z,16.62
2019-02-14T01:54:52.680Z,15.70
2019-02-14T01:57:21.112Z,13.13
2019-02-14T01:59:49.538Z,14.90
2019-02-14T02:02:17.978Z,15.40
2019-02-14T02:04:46.409Z,15.20
2019-02-14T02:07:14.857Z,15.25
2019-02-14T02:09:43.558Z,15.13
2019-02-14T02:12:11.988Z,18.30
2019-02-14T02:14:40.429Z,14.58
2019-02-14T02:17:08.857Z,16.27
2019-02-14T02:19:37.297Z,15.15
2019-02-14T02:22:06.018Z,13.28
2019-02-14T02:24:34.503Z,13.00
2019-02-14T02:27:02.921Z,17.82
2019-02-14T02:29:31.364Z,15.20
2019-02-14T02:31:59.793Z,19.35
2019-02-14T02:34:28.306Z,16.52
2019-02-14T02:36:56.734Z,14.87
2019-02-14T02:39:25.182Z,16.35
2019-02-14T02:41:53.625Z,14.90
2019-02-14T02:44:22.120Z,14.68
2019-02-14T02:46:50.541Z,19.17
2019-02-14T02:49:18.981Z,16.75
2019-02-14T02:51:47.686Z,16.50
2019-02-14T02:54:16.137Z,17.87
2019-02-14T02:56:44.561Z,14.73
2019-02-14T02:59:14.238Z,15.88
2019-02-14T03:01:42.898Z,13.78
2019-02-14T03:04:11.345Z,15.10
2019-02-14T03:06:39.772Z,16.07
2019-02-14T03:09:08.214Z,14.53
2019-02-14T03:11:36.713Z,16.48
2019-02-14T03:14:05.176Z,12.73
2019-02-14T03:16:33.593Z,15.48
2019-02-14T03:19:02.046Z,16.95
2019-02-14T03:21:30.469Z,12.98
2019-02-14T03:23:58.905Z,14.25
2019-02-14T03:26:27.650Z,13.88
2019-02-14T03:28:56.090Z,13.80
2019-02-14T03:31:24.522Z,18.77
2019-02-14T03:33:52.949Z,15.15
2019-02-14T03:36:21.381Z,15.28
2019-02-14T03:38:49.809Z,14.80
2019-02-14T03:41:18.245Z,15.70
2019-02-14T03:43:46.673Z,13.28
2019-02-14T03:46:15.117Z,14.15
2019-02-14T03:48:43.532Z,14.30
2019-02-14T03:51:11.970Z,15.08
2019-02-14T03:53:40.477Z,12.05
2019-02-14T03:56:08.916Z,14.47
2019-02-14T03:58:37.358Z,13.78
2019-02-14T04:01:05.789Z,12.70
2019-02-14T04:03:34.208Z,13.13
2019-02-14T04:06:02.653Z,13.15
2019-02-14T04:08:31.430Z,13.25
2019-02-14T04:10:59.858Z,14.93
2019-02-14T04:13:28.293Z,17.57
2019-02-14T04:15:57.092Z,13.55
2019-02-14T04:18:25.537Z,14.83
2019-02-14T04:20:53.969Z,12.90
2019-02-14T04:23:22.392Z,13.13
2019-02-14T04:25:50.830Z,12.78
2019-02-14T04:28:19.256Z,14.15
2019-02-14T04:30:47.688Z,21.33
2019-02-14T04:33:16.254Z,15.78
2019-02-14T04:35:44.753Z,14.40
2019-02-14T04:38:13.178Z,15.43
2019-02-14T04:40:41.609Z,13.50
2019-02-14T04:43:10.025Z,15.65
2019-02-14T04:45:38.457Z,11.88
2019-02-14T04:48:06.872Z,16.27
2019-02-14T04:50:35.913Z,12.55
2019-02-14T04:53:04.336Z,12.45
2019-02-14T04:55:32.784Z,12.43
2019-02-14T04:58:01.209Z,12.90
2019-02-14T05:00:29.650Z,16.05
2019-02-14T05:02:58.073Z,13.83
2019-02-14T05:05:26.493Z,14.98
2019-02-14T05:07:54.924Z,15.95
2019-02-14T05:10:23.343Z,15.08
2019-02-14T05:12:51.781Z,13.43
2019-02-14T05:15:20.208Z,12.78
2019-02-14T05:17:48.653Z,12.78
2019-02-14T05:20:17.078Z,12.50
2019-02-14T05:22:45.501Z,13.30
2019-02-14T05:25:15.285Z,14.73
2019-02-14T05:27:43.710Z,13.85
2019-02-14T05:30:18.669Z,13.53
2019-02-14T05:32:47.100Z,15.90
2019-02-14T05:35:15.516Z,13.48
2019-02-14T05:37:43.946Z,13.53
2019-02-14T05:40:12.369Z,13.43
2019-02-14T05:42:40.805Z,15.58
2019-02-14T05:45:14.085Z,14.53
2019-02-14T05:47:42.524Z,16.57
2019-02-14T05:50:14.737Z,16.87
2019-02-14T05:52:43.180Z,16.90
2019-02-14T05:55:12.521Z,18.67
2019-02-14T05:57:40.970Z,12.50
2019-02-14T06:00:17.545Z,16.10
2019-02-14T06:02:46.037Z,13.83
2019-02-14T06:05:14.499Z,15.75
2019-02-14T06:07:43.202Z,17.15
2019-02-14T06:10:12.164Z,16.57
2019-02-14T06:12:40.592Z,16.10
2019-02-14T06:15:28.356Z,16.87
2019-02-14T06:17:56.439Z,15.18
2019-02-14T06:20:24.865Z,14.18
2019-02-14T06:22:53.312Z,15.63
2019-02-14T06:25:21.737Z,15.35
2019-02-14T06:27:50.174Z,12.75
2019-02-14T06:30:18.600Z,13.43
2019-02-14T06:32:47.088Z,13.70
2019-02-14T06:35:15.504Z,17.05
2019-02-14T06:37:43.942Z,13.38
2019-02-14T06:40:13.704Z,13.18
2019-02-14T06:42:42.139Z,15.03
2019-02-14T06:45:14.880Z,14.75
2019-02-14T06:47:42.972Z,14.87
2019-02-14T06:50:11.062Z,13.53
2019-02-14T06:52:40.432Z,12.63
2019-02-14T06:55:09.648Z,14.68
2019-02-14T06:57:37.748Z,15.32
2019-02-14T07:00:11.760Z,14.87
2019-02-14T07:02:39.869Z,12.03
2019-02-14T07:05:09.644Z,16.57
2019-02-14T07:07:37.814Z,15.55
2019-02-14T07:10:08.577Z,14.23
2019-02-14T07:12:37.004Z,14.18
2019-02-14T07:15:31.912Z,17.12
2019-02-14T07:18:00.349Z,16.65
2019-02-14T07:20:28.773Z,15.80
2019-02-14T07:22:57.208Z,13.55
2019-02-14T07:25:25.358Z,17.90
2019-02-14T07:27:53.792Z,20.40
2019-02-14T07:30:22.859Z,17.80
2019-02-14T07:32:51.309Z,16.60
2019-02-14T07:35:19.881Z,13.85
2019-02-14T07:37:48.300Z,16.23
2019-02-14T07:40:17.216Z,15.80
2019-02-14T07:42:45.672Z,15.70
2019-02-14T07:45:16.180Z,17.15
2019-02-14T07:47:44.605Z,17.65
2019-02-14T07:50:13.733Z,14.58
2019-02-14T07:52:42.219Z,13.95
2019-02-14T07:55:12.197Z,17.53
2019-02-14T07:57:40.374Z,17.62
2019-02-14T08:00:12.033Z,16.75
2019-02-14T08:02:40.140Z,16.67
2019-02-14T08:05:09.602Z,16.90
2019-02-14T08:07:38.046Z,23.77
2019-02-14T08:10:11.963Z,20.08
2019-02-14T08:12:40.056Z,18.32
2019-02-14T08:15:11.193Z,18.65
2019-02-14T08:17:39.295Z,20.05
2019-02-14T08:20:10.568Z,22.93
2019-02-14T08:22:39.238Z,17.07
2019-02-14T08:25:09.909Z,19.20
2019-02-14T08:27:38.305Z,17.77
2019-02-14T08:30:12.533Z,17.43
2019-02-14T08:32:40.960Z,17.60
2019-02-14T08:35:09.667Z,16.03
2019-02-14T08:37:44.940Z,20.53
2019-02-14T08:40:12.069Z,15.43
2019-02-14T08:42:40.488Z,15.83
2019-02-14T08:45:10.061Z,15.07
2019-02-14T08:47:38.472Z,15.40
2019-02-14T08:50:08.854Z,15.00
2019-02-14T08:52:36.955Z,14.93
2019-02-14T08:55:09.721Z,14.03
2019-02-14T08:57:37.837Z,15.40
2019-02-14T09:00:09.629Z,16.20
2019-02-14T09:02:38.057Z,17.77
2019-02-14T09:05:07.424Z,15.17
2019-02-14T09:07:35.853Z,15.90
2019-02-14T09:10:05.502Z,15.63
2019-02-14T09:12:35.579Z,16.43
2019-02-14T09:15:06.276Z,16.70
2019-02-14T09:17:34.696Z,14.87
2019-02-14T09:20:03.136Z,15.00
2019-02-14T09:22:31.221Z,17.77
2019-02-14T09:24:59.316Z,15.80
2019-02-14T09:27:27.744Z,15.40
2019-02-14T09:29:55.912Z,17.83
2019-02-14T09:32:26.040Z,13.43
2019-02-14T09:34:54.465Z,22.57
2019-02-14T09:37:22.891Z,15.77
2019-02-14T09:39:51.312Z,16.17
2019-02-14T09:42:19.794Z,19.50
2019-02-14T09:44:48.220Z,15.83
2019-02-14T09:47:16.646Z,15.23
2019-02-14T09:49:44.742Z,13.73
2019-02-14T09:52:12.928Z,15.17
2019-02-14T09:54:41.372Z,16.77
2019-02-14T09:57:09.476Z,16.00
2019-02-14T09:59:37.905Z,17.13
2019-02-14T10:02:06.381Z,14.43
2019-02-14T10:04:34.806Z,18.30
2019-02-14T10:07:03.230Z,15.80
2019-02-14T10:09:31.645Z,14.07
2019-02-14T10:12:00.059Z,16.40
2019-02-14T10:14:28.503Z,15.67
2019-02-14T10:16:56.912Z,17.40
2019-02-14T10:19:25.340Z,20.50
2019-02-14T10:21:53.751Z,18.60
2019-02-14T10:24:22.176Z,15.37
2019-02-14T10:26:50.592Z,19.37
2019-02-14T10:29:19.028Z,22.53
2019-02-14T10:31:47.442Z,15.93
2019-02-14T10:34:15.865Z,21.63
2019-02-14T10:36:44.312Z,17.93
2019-02-14T10:39:12.793Z,15.33
2019-02-14T10:41:41.209Z,26.23
2019-02-14T10:44:09.651Z,17.53
2019-02-14T10:46:38.072Z,15.93
2019-02-14T10:49:06.505Z,19.77
2019-02-14T10:51:34.927Z,20.53
2019-02-14T10:54:03.436Z,14.17
2019-02-14T10:56:32.261Z,18.43
2019-02-14T10:59:00.709Z,17.87
2019-02-14T11:01:29.137Z,16.67
2019-02-14T11:03:57.897Z,17.80
2019-02-14T11:06:26.323Z,15.17
2019-02-14T11:08:54.732Z,14.07
2019-02-14T11:11:23.154Z,16.53
2019-02-14T11:13:51.916Z,17.83
2019-02-14T11:16:20.324Z,21.87
2019-02-14T11:18:48.774Z,15.97
2019-02-14T11:21:17.462Z,15.37
2019-02-14T11:23:46.156Z,14.03
2019-02-14T11:26:14.564Z,14.30
2019-02-14T11:28:42.993Z,13.70
2019-02-14T11:31:11.400Z,16.13
2019-02-14T11:33:39.820Z,18.93
2019-02-14T11:36:08.284Z,13.90
2019-02-14T11:38:40.669Z,15.07
2019-02-14T11:41:06.519Z,12.43
2019-02-14T11:43:34.925Z,15.70
2019-02-14T11:46:03.348Z,13.33
2019-02-14T11:48:31.790Z,14.13
2019-02-14T11:50:59.884Z,10.63
2019-02-14T11:53:29.436Z,17.30
2019-02-14T11:55:57.664Z,11.47
2019-02-14T11:58:26.076Z,13.43
2019-02-14T12:00:54.491Z,11.13
2019-02-14T12:03:22.899Z,10.37
2019-02-14T12:05:51.014Z,10.40
2019-02-14T12:08:19.417Z,9.40
2019-02-14T12:10:47.838Z,8.53
2019-02-14T12:13:16.580Z,10.97
2019-02-14T12:15:44.697Z,12.53
2019-02-14T12:18:13.110Z,12.60
2019-02-14T12:20:41.528Z,9.40
2019-02-14T12:23:09.937Z,12.47
2019-02-14T12:25:38.357Z,8.63
2019-02-14T12:28:06.764Z,8.53
2019-02-14T12:30:34.872Z,8.50
2019-02-14T12:33:03.282Z,7.60
2019-02-14T12:35:31.411Z,9.53
2019-02-14T12:37:59.815Z,8.13
2019-02-14T12:40:28.237Z,9.70
2019-02-14T12:42:56.644Z,6.87
2019-02-14T12:45:26.257Z,6.93
2019-02-14T12:47:54.791Z,6.83
2019-02-14T12:50:22.907Z,8.63
2019-02-14T12:52:51.335Z,9.90
2019-02-14T12:55:19.742Z,8.00
2019-02-14T12:57:47.851Z,6.40
2019-02-14T13:00:18.992Z,8.93
2019-02-14T13:02:47.064Z,6.57
2019-02-14T13:05:15.493Z,13.07
2019-02-14T13:07:43.893Z,7.70
2019-02-14T13:10:15.125Z,8.47
2019-02-14T13:12:43.537Z,9.37
2019-02-14T13:15:20.823Z,8.27
2019-02-14T13:17:49.221Z,7.13
2019-02-14T13:20:17.313Z,9.87
2019-02-14T13:22:45.720Z,6.13
2019-02-14T13:25:14.672Z,6.40
2019-02-14T13:27:43.088Z,6.57
2019-02-14T13:30:14.807Z,9.97
2019-02-14T13:32:43.221Z,8.40
2019-02-14T13:35:11.633Z,8.70
2019-02-14T13:37:40.564Z,10.40
2019-02-14T13:40:09.602Z,10.53
2019-02-14T13:42:38.010Z,6.40
2019-02-14T13:45:15.305Z,7.90
2019-02-14T13:47:43.798Z,6.10
2019-02-14T13:50:12.706Z,6.30
2019-02-14T13:52:41.121Z,10.23
2019-02-14T13:55:10.668Z,7.17
2019-02-14T13:57:39.152Z,10.70
2019-02-14T14:00:19.768Z,6.23
2019-02-14T14:02:48.179Z,8.20
2019-02-14T14:05:16.953Z,12.80
2019-02-14T14:07:45.361Z,12.47
2019-02-14T14:10:13.786Z,8.33
2019-02-14T14:12:42.523Z,8.60
2019-02-14T14:15:10.760Z,8.03
2019-02-14T14:17:39.203Z,10.80
2019-02-14T14:20:08.947Z,7.27
2019-02-14T14:22:37.452Z,7.93
2019-02-14T14:25:07.691Z,8.13
2019-02-14T14:27:36.108Z,8.43
2019-02-14T14:30:07.929Z,5.53
2019-02-14T14:32:55.678Z,6.07
2019-02-14T14:35:24.428Z,7.97
2019-02-14T14:37:52.840Z,8.13
2019-02-14T14:40:21.253Z,7.20
2019-02-14T14:42:50.977Z,10.13
2019-02-14T14:45:37.366Z,10.40
2019-02-14T14:48:05.771Z,8.63
2019-02-14T14:50:34.185Z,10.07
2019-02-14T14:53:02.600Z,8.67
2019-02-14T14:55:31.004Z,9.23
2019-02-14T14:57:59.441Z,7.93
2019-02-14T15:00:27.857Z,8.80
2019-02-14T15:02:56.276Z,13.00
2019-02-14T15:05:24.681Z,7.87
2019-02-14T15:07:53.094Z,9.47
2019-02-14T15:10:21.515Z,8.40
2019-02-14T15:12:49.913Z,9.43
2019-02-14T15:15:18.663Z,9.67
2019-02-14T15:17:47.092Z,7.90
2019-02-14T15:20:15.175Z,9.77
2019-02-14T15:22:43.609Z,10.17
2019-02-14T15:25:11.684Z,7.80
2019-02-14T15:27:39.774Z,6.83
2019-02-14T15:30:11.200Z,10.23
2019-02-14T15:32:39.620Z,10.47
2019-02-14T15:35:08.899Z,10.77
2019-02-14T15:37:37.316Z,11.47
2019-02-14T15:40:09.107Z,8.57
2019-02-14T15:42:36.607Z,15.33
2019-02-14T15:45:05.753Z,12.90
2019-02-14T15:47:34.173Z,9.20
2019-02-14T15:50:04.336Z,10.97
2019-02-14T15:52:32.750Z,13.87
2019-02-14T15:55:01.164Z,11.87
2019-02-14T15:57:29.608Z,11.57
2019-02-14T15:59:58.064Z,9.87
2019-02-14T16:02:28.441Z,11.83
2019-02-14T16:04:56.887Z,9.07
2019-02-14T16:07:24.976Z,11.13
2019-02-14T16:09:53.060Z,15.67
2019-02-14T16:12:21.969Z,12.43
2019-02-14T16:14:50.571Z,18.77
2019-02-14T16:17:18.644Z,13.23
2019-02-14T16:19:46.716Z,7.27
2019-02-14T16:22:15.836Z,7.00
2019-02-14T16:24:45.268Z,11.37
2019-02-14T16:27:13.682Z,14.30
2019-02-14T16:29:42.101Z,12.33
2019-02-14T16:32:10.504Z,7.70
2019-02-14T16:34:38.952Z,10.33
2019-02-14T16:37:07.435Z,9.90
2019-02-14T16:39:36.708Z,9.73
2019-02-14T16:42:05.120Z,13.60
2019-02-14T16:44:33.536Z,13.23
2019-02-14T16:47:01.952Z,10.50
2019-02-14T16:49:30.373Z,10.30
2019-02-14T16:51:58.776Z,8.77
2019-02-14T16:54:27.196Z,12.37
2019-02-14T16:56:55.600Z,6.77
2019-02-14T16:59:24.056Z,12.33
2019-02-14T17:01:52.460Z,8.93
2019-02-14T17:04:20.890Z,33.33
2019-02-14T17:06:49.298Z,12.63
2019-02-14T17:09:17.766Z,13.23
2019-02-14T17:11:46.168Z,28.73
2019-02-14T17:14:14.606Z,76.40
2019-02-14T17:16:42.708Z,14.70
2019-02-14T17:19:10.793Z,25.63
2019-02-14T17:21:38.882Z,27.00
2019-02-14T17:24:06.977Z,15.07
2019-02-14T17:26:35.384Z,12.57
2019-02-14T17:29:03.468Z,12.53
2019-02-14T17:31:31.885Z,16.70
2019-02-14T17:33:59.980Z,14.93
2019-02-14T17:36:28.390Z,25.43
2019-02-14T17:38:56.834Z,39.80
2019-02-14T17:41:25.252Z,31.30
2019-02-14T17:43:53.681Z,22.63
2019-02-14T17:46:22.119Z,19.30
2019-02-14T17:48:50.550Z,13.17
2019-02-14T17:51:18.952Z,6.90
2019-02-14T17:53:47.376Z,13.53
2019-02-14T17:56:15.462Z,11.00
2019-02-14T17:58:43.573Z,20.10
2019-02-14T18:01:12.065Z,8.20
2019-02-14T18:03:40.475Z,7.67
2019-02-14T18:06:08.910Z,7.67
2019-02-14T18:08:37.409Z,9.33
2019-02-14T18:11:05.984Z,9.87
2019-02-14T18:13:34.402Z,8.47
2019-02-14T18:16:02.894Z,9.37
2019-02-14T18:18:30.981Z,10.00
2019-02-14T18:20:59.072Z,8.93
2019-02-14T18:23:27.506Z,15.90
2019-02-14T18:25:55.684Z,17.23
2019-02-14T18:28:23.780Z,17.07
2019-02-14T18:30:52.213Z,12.43
2019-02-14T18:33:20.681Z,11.93
2019-02-14T18:35:49.132Z,8.27
2019-02-14T18:38:17.544Z,12.20
2019-02-14T18:40:46.281Z,14.73
2019-02-14T18:43:14.696Z,11.37
2019-02-14T18:45:42.785Z,10.57
2019-02-14T18:48:10.863Z,12.37
2019-02-14T18:50:42.215Z,14.20
2019-02-14T18:53:10.624Z,18.20
2019-02-14T18:55:38.737Z,22.63
2019-02-14T18:58:06.832Z,26.03
2019-02-14T19:00:35.267Z,16.67
2019-02-14T19:03:03.774Z,25.97
2019-02-14T19:05:32.196Z,32.70
2019-02-14T19:08:00.622Z,31.63
2019-02-14T19:10:29.066Z,16.13
2019-02-14T19:12:57.486Z,12.40
2019-02-14T19:15:25.929Z,20.53
2019-02-14T19:17:54.346Z,14.53
2019-02-14T19:20:22.764Z,14.77
2019-02-14T19:22:50.872Z,15.27
2019-02-14T19:25:19.280Z,31.50
2019-02-14T19:27:47.376Z,42.78
2019-02-14T19:30:15.807Z,36.83
2019-02-14T19:32:44.005Z,17.37
2019-02-14T19:35:12.424Z,22.23
2019-02-14T19:37:40.859Z,26.20
2019-02-14T19:40:09.553Z,25.03
2019-02-14T19:42:37.985Z,26.10
2019-02-14T19:45:36.257Z,30.30
2019-02-14T19:47:57.121Z,13.50
2019-02-14T19:50:25.648Z,20.40
2019-02-14T19:52:54.110Z,19.67
2019-02-14T19:55:22.531Z,15.03
2019-02-14T19:57:50.945Z,29.57
2019-02-14T20:00:19.369Z,33.67
2019-02-14T20:02:47.797Z,26.47
2019-02-14T20:05:16.233Z,23.63
2019-02-14T20:07:44.653Z,20.03
2019-02-14T20:10:14.549Z,20.37
2019-02-14T20:12:43.238Z,17.97
2019-02-14T20:15:14.566Z,15.53
2019-02-14T20:17:42.994Z,17.83
2019-02-14T20:20:11.435Z,20.17
2019-02-14T20:22:39.852Z,17.47
2019-02-14T20:25:20.377Z,15.40
2019-02-14T20:27:50.041Z,15.60
2019-02-14T20:30:18.630Z,14.57
2019-02-14T20:32:47.040Z,14.97
2019-02-14T20:35:15.456Z,14.00
2019-02-14T20:37:44.178Z,17.10
2019-02-14T20:40:12.590Z,34.57
2019-02-14T20:42:41.341Z,52.10
2019-02-14T20:45:12.810Z,57.00
2019-02-14T20:47:41.276Z,29.33
2019-02-14T20:50:11.921Z,31.83
2019-02-14T20:52:40.421Z,26.30
2019-02-14T20:55:11.945Z,29.73
2019-02-14T20:57:40.382Z,20.33
2019-02-14T21:00:12.478Z,50.97
2019-02-14T21:02:40.893Z,18.83
2019-02-14T21:05:09.320Z,32.63
2019-02-14T21:07:37.751Z,32.40
2019-02-14T21:10:07.566Z,87.20
2019-02-14T21:12:36.000Z,32.53
2019-02-14T21:15:05.676Z,41.37
2019-02-14T21:17:34.100Z,30.47
2019-02-14T21:20:02.524Z,28.50
2019-02-14T21:22:30.934Z,30.27
2019-02-14T21:24:59.366Z,27.30
2019-02-14T21:27:27.777Z,62.90
2019-02-14T21:29:56.215Z,30.97
2019-02-14T21:32:24.627Z,25.23
2019-02-14T21:34:53.075Z,37.50
2019-02-14T21:37:21.565Z,25.33
2019-02-14T21:39:49.987Z,26.80
2019-02-14T21:42:22.077Z,31.10
2019-02-14T21:44:48.619Z,30.30
2019-02-14T21:47:17.139Z,20.77
2019-02-14T21:49:45.630Z,20.73
2019-02-14T21:52:14.400Z,20.40
2019-02-14T21:54:42.879Z,24.17
2019-02-14T21:57:11.291Z,25.77
2019-02-14T21:59:39.737Z,23.63
2019-02-14T22:02:08.175Z,21.37
2019-02-14T22:04:36.658Z,27.43
2019-02-14T22:07:05.204Z,26.47
2019-02-14T22:09:33.759Z,25.27
2019-02-14T22:12:02.216Z,23.60
2019-02-14T22:14:30.762Z,26.93
2019-02-14T22:16:59.591Z,27.63
2019-02-14T22:19:28.026Z,22.73
2019-02-14T22:21:56.447Z,19.80
2019-02-14T22:24:24.893Z,18.63
2019-02-14T22:26:53.380Z,18.63
2019-02-14T22:29:21.872Z,17.33
2019-02-14T22:31:50.295Z,15.47
2019-02-14T22:34:18.721Z,16.53
2019-02-14T22:36:47.141Z,17.87
2019-02-14T22:39:15.565Z,18.10
2019-02-14T22:41:44.001Z,17.17
2019-02-14T22:44:12.416Z,14.77
2019-02-14T22:46:40.841Z,14.33
2019-02-14T22:49:09.286Z,15.43
2019-02-14T22:51:37.784Z,20.70
2019-02-14T22:54:06.499Z,17.37
2019-02-14T22:56:34.933Z,16.83
2019-02-14T22:59:03.361Z,17.67
2019-02-14T23:01:31.848Z,17.67
2019-02-14T23:04:00.281Z,24.90
2019-02-14T23:06:29.577Z,19.40
2019-02-14T23:08:58.041Z,21.40
2019-02-14T23:11:26.461Z,18.07
2019-02-14T23:13:54.885Z,26.23
2019-02-14T23:16:23.436Z,22.03
2019-02-14T23:18:52.134Z,20.00
2019-02-14T23:21:20.568Z,23.03
2019-02-14T23:23:49.004Z,23.10
2019-02-14T23:26:17.433Z,21.57
2019-02-14T23:28:45.861Z,26.27
2019-02-14T23:31:14.301Z,26.50
2019-02-14T23:33:42.734Z,24.12
2019-02-14T23:36:11.170Z,25.35
2019-02-14T23:38:39.597Z,28.70
2019-02-14T23:41:08.028Z,21.20
2019-02-14T23:43:36.464Z,25.90
2019-02-14T23:46:04.901Z,23.20
2019-02-14T23:48:33.339Z,25.88
2019-02-14T23:51:03.507Z,22.93
2019-02-14T23:53:31.924Z,22.48
2019-02-14T23:56:00.369Z,18.82
2019-02-14T23:58:28.786Z,19.23
